createdAt,value
2019-02-24T00:01:28.982Z,46.40
2019-02-24T00:03:58.447Z,44.50
2019-02-24T00:06:28.103Z,45.20
2019-02-24T00:08:57.643Z,45.20
2019-02-24T00:11:26.896Z,45.30
2019-02-24T00:13:56.252Z,44.60
2019-02-24T00:16:25.708Z,44.30
2019-02-24T00:18:55.072Z,45.00
2019-02-24T00:21:24.512Z,45.30
2019-02-24T00:23:54.098Z,45.70
2019-02-24T00:26:23.753Z,44.90
2019-02-24T00:28:54.300Z,45.20
2019-02-24T00:31:23.767Z,45.10
2019-02-24T00:33:53.734Z,45.00
2019-02-24T00:36:22.989Z,45.30
2019-02-24T00:38:52.192Z,43.60
2019-02-24T00:41:21.746Z,43.80
2019-02-24T00:43:51.720Z,43.60
2019-02-24T00:46:21.166Z,43.60
2019-02-24T00:48:50.533Z,44.00
2019-02-24T00:51:19.983Z,43.50
2019-02-24T00:53:49.354Z,42.40
2019-02-24T00:56:19.017Z,42.90
2019-02-24T00:58:48.481Z,42.20
2019-02-24T01:01:18.037Z,41.80
2019-02-24T01:03:47.497Z,41.60
2019-02-24T01:06:17.038Z,41.70
2019-02-24T01:08:46.490Z,41.50
2019-02-24T01:11:15.864Z,40.80
2019-02-24T01:13:45.330Z,41.70
2019-02-24T01:16:14.822Z,41.30
2019-02-24T01:18:44.164Z,41.10
2019-02-24T01:21:13.810Z,40.20
2019-02-24T01:23:43.369Z,40.20
2019-02-24T01:26:12.818Z,40.20
2019-02-24T01:28:42.377Z,40.40
2019-02-24T01:31:11.822Z,40.80
2019-02-24T01:33:41.564Z,40.50
2019-02-24T01:36:11.012Z,40.50
2019-02-24T01:38:40.382Z,40.70
2019-02-24T01:41:09.931Z,41.60
2019-02-24T01:43:39.598Z,43.40
2019-02-24T01:46:09.057Z,44.00
2019-02-24T01:48:38.793Z,43.70
2019-02-24T01:51:08.041Z,43.90
2019-02-24T01:53:37.235Z,44.20
2019-02-24T01:56:06.715Z,43.40
2019-02-24T01:58:35.967Z,44.40
2019-02-24T02:01:05.537Z,44.00
2019-02-24T02:03:35.269Z,44.70
2019-02-24T02:06:04.923Z,44.20
2019-02-24T02:08:34.385Z,43.60
2019-02-24T02:11:03.735Z,42.90
2019-02-24T02:13:32.993Z,42.10
2019-02-24T02:16:02.240Z,39.70
2019-02-24T02:18:31.810Z,39.40
2019-02-24T02:21:01.063Z,38.50
2019-02-24T02:23:30.628Z,39.10
2019-02-24T02:26:00.103Z,39.40
2019-02-24T02:28:29.641Z,40.40
2019-02-24T02:30:58.889Z,40.00
2019-02-24T02:33:28.264Z,41.70
2019-02-24T02:35:58.709Z,42.40
2019-02-24T02:38:28.271Z,44.40
2019-02-24T02:40:57.735Z,45.40
2019-02-24T02:43:27.479Z,46.40
2019-02-24T02:45:56.726Z,46.60
2019-02-24T02:48:26.095Z,47.30
2019-02-24T02:50:55.333Z,47.90
2019-02-24T02:53:24.808Z,48.20
2019-02-24T02:55:54.149Z,48.60
2019-02-24T02:58:23.614Z,49.40
2019-02-24T03:00:53.161Z,49.80
2019-02-24T03:03:22.636Z,49.50
2019-02-24T03:05:54.231Z,48.60
2019-02-24T03:08:25.125Z,46.70
2019-02-24T03:10:54.486Z,46.50
2019-02-24T03:13:23.676Z,45.30
2019-02-24T03:15:53.024Z,45.40
2019-02-24T03:18:22.395Z,45.40
2019-02-24T03:20:51.854Z,47.20
2019-02-24T03:23:21.126Z,46.80
2019-02-24T03:25:50.488Z,47.50
2019-02-24T03:28:19.926Z,47.70
2019-02-24T03:30:49.146Z,47.50
2019-02-24T03:33:18.586Z,47.10
2019-02-24T03:35:48.238Z,47.00
2019-02-24T03:38:17.738Z,46.90
2019-02-24T03:40:46.996Z,46.60
2019-02-24T03:43:16.382Z,47.60
2019-02-24T03:45:46.444Z,46.60
2019-02-24T03:48:16.022Z,47.00
2019-02-24T03:50:45.475Z,47.90
2019-02-24T03:53:14.742Z,49.10
2019-02-24T03:55:43.919Z,49.60
2019-02-24T03:58:13.581Z,49.80
2019-02-24T04:00:43.026Z,50.70
2019-02-24T04:03:12.591Z,50.70
2019-02-24T04:05:42.051Z,49.20
2019-02-24T04:08:11.398Z,50.70
2019-02-24T04:10:41.271Z,51.70
2019-02-24T04:13:10.438Z,49.90
2019-02-24T04:15:39.910Z,51.20
2019-02-24T04:18:09.352Z,51.60
2019-02-24T04:20:38.919Z,52.00
2019-02-24T04:23:08.187Z,52.10
2019-02-24T04:25:37.458Z,52.30
2019-02-24T04:28:07.414Z,52.20
2019-02-24T04:30:36.869Z,52.00
2019-02-24T04:33:06.218Z,52.80
2019-02-24T04:35:35.696Z,52.00
2019-02-24T04:38:05.451Z,51.70
2019-02-24T04:40:34.915Z,52.90
2019-02-24T04:43:04.187Z,52.50
2019-02-24T04:45:33.743Z,53.10
2019-02-24T04:48:03.017Z,53.30
2019-02-24T04:50:32.481Z,51.20
2019-02-24T04:53:02.003Z,52.70
2019-02-24T04:55:31.360Z,53.90
2019-02-24T04:58:01.019Z,53.70
2019-02-24T05:00:30.390Z,52.90
2019-02-24T05:02:59.575Z,52.00
2019-02-24T05:05:29.127Z,51.00
2019-02-24T05:07:58.407Z,51.30
2019-02-24T05:10:28.377Z,52.10
2019-02-24T05:12:57.827Z,52.40
2019-02-24T05:15:27.598Z,52.60
2019-02-24T05:17:57.042Z,53.10
2019-02-24T05:20:26.608Z,53.50
2019-02-24T05:22:55.800Z,53.30
2019-02-24T05:25:25.196Z,52.30
2019-02-24T05:27:54.629Z,51.30
2019-02-24T05:30:24.179Z,52.20
2019-02-24T05:32:53.841Z,52.90
2019-02-24T05:35:23.407Z,54.10
2019-02-24T05:37:52.651Z,53.80
2019-02-24T05:40:22.228Z,54.40
2019-02-24T05:42:51.492Z,53.70
2019-02-24T05:45:20.769Z,53.20
2019-02-24T05:47:50.068Z,53.30
2019-02-24T05:50:19.527Z,54.00
2019-02-24T05:52:48.733Z,54.00
2019-02-24T05:55:18.193Z,53.80
2019-02-24T05:57:47.851Z,54.10
2019-02-24T06:00:17.427Z,54.10
2019-02-24T06:02:46.975Z,54.10
2019-02-24T06:05:16.440Z,53.60
2019-02-24T06:07:45.616Z,53.80
2019-02-24T06:10:14.974Z,54.40
2019-02-24T06:12:44.726Z,54.50
2019-02-24T06:15:13.914Z,54.60
2019-02-24T06:17:44.844Z,54.50
2019-02-24T06:20:14.200Z,54.40
2019-02-24T06:22:43.552Z,54.30
2019-02-24T06:25:13.020Z,53.50
2019-02-24T06:27:42.271Z,52.80
2019-02-24T06:30:11.636Z,52.10
2019-02-24T06:32:41.976Z,51.40
2019-02-24T06:35:11.423Z,50.20
2019-02-24T06:37:41.075Z,52.10
2019-02-24T06:40:10.423Z,52.50
2019-02-24T06:42:39.971Z,52.10
2019-02-24T06:45:09.924Z,52.50
2019-02-24T06:47:39.770Z,52.90
2019-02-24T06:50:10.196Z,53.00
2019-02-24T06:52:39.723Z,52.90
2019-02-24T06:55:09.271Z,52.90
2019-02-24T06:57:40.927Z,53.30
2019-02-24T07:00:14.218Z,53.00
2019-02-24T07:02:41.986Z,53.30
2019-02-24T07:05:11.657Z,53.20
2019-02-24T07:07:40.902Z,52.90
2019-02-24T07:10:10.108Z,53.10
2019-02-24T07:12:39.767Z,52.70
2019-02-24T07:15:09.491Z,53.20
2019-02-24T07:17:38.973Z,53.30
2019-02-24T07:20:08.425Z,53.00
2019-02-24T07:22:37.769Z,51.90
2019-02-24T07:25:07.233Z,51.00
2019-02-24T07:27:36.479Z,49.70
2019-02-24T07:30:09.082Z,49.00
2019-02-24T07:32:38.436Z,47.90
2019-02-24T07:35:08.371Z,49.20
2019-02-24T07:37:38.034Z,49.10
2019-02-24T07:40:07.563Z,48.20
2019-02-24T07:42:37.038Z,48.20
2019-02-24T07:45:08.025Z,47.00
2019-02-24T07:47:37.206Z,45.40
2019-02-24T07:50:08.429Z,45.80
2019-02-24T07:52:37.941Z,45.20
2019-02-24T07:55:07.415Z,45.30
2019-02-24T07:57:36.978Z,44.80
2019-02-24T08:00:09.543Z,46.40
2019-02-24T08:02:38.802Z,46.60
2019-02-24T08:05:08.527Z,45.40
2019-02-24T08:07:37.981Z,44.20
2019-02-24T08:10:07.915Z,44.70
2019-02-24T08:12:37.492Z,44.30
2019-02-24T08:15:08.601Z,40.50
2019-02-24T08:17:37.932Z,40.60
2019-02-24T08:20:09.040Z,42.60
2019-02-24T08:22:38.499Z,40.60
2019-02-24T08:25:08.032Z,40.60
2019-02-24T08:27:37.226Z,41.90
2019-02-24T08:30:10.207Z,40.50
2019-02-24T08:32:39.751Z,39.50
2019-02-24T08:35:09.120Z,38.20
2019-02-24T08:37:38.573Z,37.00
2019-02-24T08:40:08.880Z,35.10
2019-02-24T08:42:57.879Z,35.30
2019-02-24T08:45:27.649Z,36.00
2019-02-24T08:47:56.899Z,33.70
2019-02-24T08:50:26.180Z,33.20
2019-02-24T08:52:55.702Z,31.30
2019-02-24T08:55:24.908Z,30.50
2019-02-24T08:57:54.260Z,32.50
2019-02-24T09:00:23.829Z,30.00
2019-02-24T09:02:53.502Z,32.10
2019-02-24T09:05:23.118Z,29.70
2019-02-24T09:07:52.406Z,30.70
2019-02-24T09:10:21.668Z,30.30
2019-02-24T09:12:51.349Z,30.90
2019-02-24T09:15:21.026Z,29.80
2019-02-24T09:17:50.549Z,29.30
2019-02-24T09:20:20.226Z,26.90
2019-02-24T09:22:49.850Z,26.70
2019-02-24T09:25:19.233Z,27.70
2019-02-24T09:27:49.038Z,27.30
2019-02-24T09:30:18.432Z,26.80
2019-02-24T09:32:47.953Z,25.80
2019-02-24T09:35:17.915Z,25.10
2019-02-24T09:37:47.385Z,24.90
2019-02-24T09:40:16.867Z,24.70
2019-02-24T09:42:46.226Z,24.10
2019-02-24T09:45:15.065Z,24.70
2019-02-24T09:47:47.018Z,23.20
2019-02-24T09:50:15.880Z,23.40
2019-02-24T09:52:45.094Z,22.50
2019-02-24T09:55:14.771Z,22.70
2019-02-24T09:57:44.227Z,23.60
2019-02-24T10:00:16.899Z,24.60
2019-02-24T10:02:46.187Z,24.80
2019-02-24T10:05:16.256Z,24.00
2019-02-24T10:07:45.779Z,24.80
2019-02-24T10:10:15.173Z,22.90
2019-02-24T10:12:44.750Z,20.70
2019-02-24T10:15:14.855Z,18.10
2019-02-24T10:17:44.045Z,20.40
2019-02-24T10:20:13.746Z,18.50
2019-02-24T10:22:43.108Z,21.30
2019-02-24T10:25:12.546Z,20.70
2019-02-24T10:27:41.909Z,19.20
2019-02-24T10:30:12.923Z,20.40
2019-02-24T10:32:42.115Z,22.10
2019-02-24T10:35:11.488Z,19.30
2019-02-24T10:37:40.819Z,21.20
2019-02-24T10:40:16.848Z,20.00
2019-02-24T10:42:46.047Z,20.50
2019-02-24T10:45:16.744Z,19.60
2019-02-24T10:47:46.095Z,17.70
2019-02-24T10:50:17.105Z,17.90
2019-02-24T10:52:46.558Z,15.10
2019-02-24T10:55:15.936Z,17.70
2019-02-24T10:57:45.448Z,17.90
2019-02-24T11:00:17.230Z,17.50
2019-02-24T11:02:46.492Z,14.20
2019-02-24T11:05:16.236Z,15.90
2019-02-24T11:07:45.690Z,17.50
2019-02-24T11:10:15.359Z,16.80
2019-02-24T11:12:44.884Z,14.40
2019-02-24T11:15:14.812Z,13.00
2019-02-24T11:17:44.465Z,18.00
2019-02-24T11:20:15.470Z,14.90
2019-02-24T11:22:44.726Z,14.90
2019-02-24T11:25:14.199Z,16.00
2019-02-24T11:27:43.743Z,13.80
2019-02-24T11:30:14.737Z,14.60
2019-02-24T11:32:44.092Z,10.00
2019-02-24T11:35:13.512Z,13.50
2019-02-24T11:37:42.982Z,12.90
2019-02-24T11:40:18.119Z,13.70
2019-02-24T11:42:47.494Z,13.20
2019-02-24T11:45:16.683Z,9.70
2019-02-24T11:47:46.142Z,11.90
2019-02-24T11:50:15.590Z,10.30
2019-02-24T11:52:45.136Z,11.30
2019-02-24T11:55:14.399Z,6.20
2019-02-24T11:57:43.749Z,12.60
2019-02-24T12:00:14.868Z,10.40
2019-02-24T12:02:44.331Z,9.00
2019-02-24T12:05:14.054Z,10.20
2019-02-24T12:07:43.411Z,11.00
2019-02-24T12:10:13.363Z,9.30
2019-02-24T12:12:42.865Z,9.60
2019-02-24T12:15:15.144Z,3.00
2019-02-24T12:17:44.490Z,7.00
2019-02-24T12:20:14.606Z,5.00
2019-02-24T12:22:44.050Z,7.10
2019-02-24T12:25:13.325Z,7.40
2019-02-24T12:27:42.655Z,7.60
2019-02-24T12:30:16.307Z,5.60
2019-02-24T12:32:45.551Z,6.70
2019-02-24T12:35:14.920Z,7.60
2019-02-24T12:37:44.244Z,7.10
2019-02-24T12:40:14.552Z,6.10
2019-02-24T12:42:43.847Z,5.00
2019-02-24T12:45:13.445Z,4.50
2019-02-24T12:47:42.979Z,3.10
2019-02-24T12:50:17.447Z,7.50
2019-02-24T12:52:46.781Z,4.00
2019-02-24T12:55:16.246Z,6.80
2019-02-24T12:57:45.415Z,7.40
2019-02-24T13:00:20.111Z,7.10
2019-02-24T13:02:48.786Z,3.10
2019-02-24T13:05:18.117Z,5.00
2019-02-24T13:07:47.378Z,8.10
2019-02-24T13:10:17.557Z,6.20
2019-02-24T13:12:46.819Z,4.80
2019-02-24T13:15:16.530Z,7.80
2019-02-24T13:17:46.091Z,8.20
2019-02-24T13:20:15.336Z,7.20
2019-02-24T13:22:44.919Z,6.40
2019-02-24T13:25:14.715Z,7.10
2019-02-24T13:27:43.898Z,6.90
2019-02-24T13:30:14.834Z,6.40
2019-02-24T14:12:32.251Z,1.00
2019-02-24T14:15:01.698Z,1.90
2019-02-24T14:17:31.069Z,8.40
2019-02-24T14:20:00.350Z,7.60
2019-02-24T14:22:29.612Z,6.90
2019-02-24T14:24:59.182Z,6.00
2019-02-24T14:27:28.435Z,6.20
2019-02-24T14:29:58.566Z,10.70
2019-02-24T14:32:33.095Z,9.60
2019-02-24T14:34:59.374Z,9.50
2019-02-24T14:37:28.583Z,8.00
2019-02-24T14:39:58.030Z,11.90
2019-02-24T14:42:27.522Z,9.60
2019-02-24T14:44:56.859Z,7.10
2019-02-24T14:47:27.470Z,7.60
2019-02-24T14:49:56.733Z,12.10
2019-02-24T14:52:26.201Z,7.30
2019-02-24T14:54:55.660Z,8.80
2019-02-24T14:57:25.193Z,9.70
2019-02-24T14:59:54.484Z,10.70
2019-02-24T15:02:25.148Z,10.50
2019-02-24T15:04:54.515Z,7.70
2019-02-24T15:07:24.031Z,7.70
2019-02-24T15:09:53.531Z,10.40
2019-02-24T15:12:23.078Z,11.20
2019-02-24T15:14:52.274Z,10.40
2019-02-24T15:17:23.059Z,7.70
2019-02-24T15:19:52.968Z,9.50
2019-02-24T15:22:22.264Z,9.30
2019-02-24T15:24:51.945Z,10.80
2019-02-24T15:27:21.443Z,10.90
2019-02-24T15:29:50.958Z,9.70
2019-02-24T15:32:20.227Z,9.50
2019-02-24T15:34:49.424Z,11.10
2019-02-24T15:37:18.917Z,12.10
2019-02-24T15:39:48.240Z,11.50
2019-02-24T15:42:17.507Z,13.70
2019-02-24T15:44:47.762Z,9.30
2019-02-24T15:47:17.295Z,11.50
2019-02-24T15:49:46.552Z,12.40
2019-02-24T15:52:16.075Z,11.80
2019-02-24T15:54:45.323Z,11.20
2019-02-24T15:57:14.889Z,13.10
2019-02-24T15:59:45.399Z,12.70
2019-02-24T16:02:15.946Z,12.30
2019-02-24T16:04:45.321Z,12.00
2019-02-24T16:07:14.676Z,15.90
2019-02-24T16:09:43.928Z,13.10
2019-02-24T16:12:13.287Z,15.90
2019-02-24T16:14:42.537Z,16.50
2019-02-24T16:17:11.943Z,14.40
2019-02-24T16:19:41.410Z,17.60
2019-02-24T16:22:10.679Z,19.20
2019-02-24T16:24:39.962Z,18.40
2019-02-24T16:27:09.245Z,19.80
2019-02-24T16:29:38.578Z,21.60
2019-02-24T16:32:07.945Z,17.10
2019-02-24T16:34:37.196Z,16.50
2019-02-24T16:37:06.526Z,17.20
2019-02-24T16:39:35.801Z,17.90
2019-02-24T16:42:05.110Z,16.80
2019-02-24T16:44:34.551Z,14.00
2019-02-24T16:47:04.312Z,15.40
2019-02-24T16:49:33.864Z,18.40
2019-02-24T16:52:03.500Z,18.80
2019-02-24T16:54:32.743Z,18.70
2019-02-24T16:57:05.174Z,20.50
2019-02-24T16:59:32.949Z,18.90
2019-02-24T17:02:02.647Z,18.30
2019-02-24T17:04:31.897Z,16.10
2019-02-24T17:07:01.355Z,17.90
2019-02-24T17:09:30.682Z,20.10
2019-02-24T17:11:59.968Z,21.20
2019-02-24T17:14:29.195Z,21.80
2019-02-24T17:17:01.566Z,16.70
2019-02-24T17:19:29.703Z,15.90
2019-02-24T17:21:59.225Z,19.10
2019-02-24T17:24:28.417Z,21.10
2019-02-24T17:26:57.703Z,16.40
2019-02-24T17:29:26.970Z,15.10
2019-02-24T17:31:57.366Z,14.20
2019-02-24T17:34:26.718Z,15.20
2019-02-24T17:36:56.247Z,17.10
2019-02-24T17:39:26.123Z,16.50
2019-02-24T17:41:55.325Z,16.80
2019-02-24T17:44:24.512Z,17.10
2019-02-24T17:46:53.783Z,17.90
2019-02-24T17:49:24.354Z,23.80
2019-02-24T17:51:53.555Z,24.00
2019-02-24T17:54:23.138Z,22.90
2019-02-24T17:56:52.411Z,24.20
2019-02-24T17:59:21.586Z,26.50
2019-02-24T18:01:50.847Z,25.70
2019-02-24T18:04:20.344Z,25.50
2019-02-24T18:06:49.599Z,26.40
2019-02-24T18:09:19.155Z,25.20
2019-02-24T18:11:48.421Z,21.80
2019-02-24T18:14:17.617Z,22.90
2019-02-24T18:16:46.931Z,23.30
2019-02-24T18:19:16.373Z,27.30
2019-02-24T18:21:45.856Z,26.70
2019-02-24T18:24:15.115Z,24.90
2019-02-24T18:26:45.726Z,26.10
2019-02-24T18:29:15.167Z,25.20
2019-02-24T18:31:44.453Z,25.50
2019-02-24T18:34:14.177Z,29.00
2019-02-24T18:36:43.663Z,28.80
2019-02-24T18:39:13.207Z,25.50
2019-02-24T18:41:42.954Z,25.70
2019-02-24T18:44:12.417Z,25.60
2019-02-24T18:46:44.828Z,27.20
2019-02-24T18:49:14.073Z,25.30
2019-02-24T18:51:43.546Z,27.30
2019-02-24T18:54:12.875Z,26.90
2019-02-24T18:56:42.178Z,26.40
2019-02-24T18:59:11.501Z,26.70
2019-02-24T19:01:40.983Z,33.30
2019-02-24T19:04:10.495Z,33.50
2019-02-24T19:06:40.063Z,28.90
2019-02-24T19:09:09.256Z,28.40
2019-02-24T19:11:38.613Z,29.90
2019-02-24T19:14:07.885Z,31.80
2019-02-24T19:16:37.357Z,31.30
2019-02-24T19:19:06.719Z,28.50
2019-02-24T19:21:36.195Z,26.60
2019-02-24T19:24:05.486Z,26.10
2019-02-24T19:26:35.229Z,26.30
2019-02-24T19:29:04.693Z,27.60
2019-02-24T19:31:34.246Z,27.90
2019-02-24T19:34:06.615Z,29.20
2019-02-24T19:36:34.892Z,28.20
2019-02-24T19:39:04.824Z,29.00
2019-02-24T19:41:34.307Z,29.00
2019-02-24T19:44:03.779Z,32.60
2019-02-24T19:46:33.252Z,32.90
2019-02-24T19:49:02.499Z,30.30
2019-02-24T19:51:32.159Z,27.70
2019-02-24T19:54:02.195Z,28.40
2019-02-24T19:56:31.641Z,28.10
2019-02-24T19:59:01.205Z,26.90
2019-02-24T20:01:30.675Z,27.00
2019-02-24T20:04:00.211Z,25.80
2019-02-24T20:06:29.496Z,25.70
2019-02-24T20:08:58.960Z,27.80
2019-02-24T20:11:28.312Z,28.90
2019-02-24T20:13:57.570Z,29.50
2019-02-24T20:16:27.108Z,29.30
2019-02-24T20:18:56.369Z,28.50
2019-02-24T20:21:25.641Z,28.60
2019-02-24T20:23:54.904Z,29.20
2019-02-24T20:26:24.252Z,28.10
2019-02-24T20:28:53.993Z,28.10
2019-02-24T20:31:23.297Z,27.50
2019-02-24T20:33:52.772Z,25.70
2019-02-24T20:36:22.299Z,26.60
2019-02-24T20:38:51.822Z,29.80
2019-02-24T20:41:21.102Z,30.50
2019-02-24T20:43:50.416Z,30.70
2019-02-24T20:46:19.664Z,29.30
2019-02-24T20:48:49.019Z,28.00
2019-02-24T20:51:18.658Z,27.90
2019-02-24T20:53:48.242Z,29.40
2019-02-24T20:56:17.497Z,28.10
2019-02-24T20:58:46.771Z,28.10
2019-02-24T21:01:16.065Z,29.20
2019-02-24T21:03:45.414Z,29.50
2019-02-24T21:06:15.118Z,30.70
2019-02-24T21:08:44.436Z,32.50
2019-02-24T21:11:13.883Z,30.00
2019-02-24T21:13:43.426Z,30.00
2019-02-24T21:16:12.675Z,30.30
2019-02-24T21:18:42.042Z,30.20
2019-02-24T21:21:11.694Z,30.80
2019-02-24T21:23:41.273Z,34.40
2019-02-24T21:26:10.747Z,35.30
2019-02-24T21:28:39.976Z,36.40
2019-02-24T21:31:09.173Z,34.80
2019-02-24T21:33:38.436Z,33.30
2019-02-24T21:36:07.710Z,33.00
2019-02-24T21:38:37.240Z,33.60
2019-02-24T21:41:06.723Z,34.50
2019-02-24T21:43:36.042Z,34.70
2019-02-24T21:46:05.318Z,33.60
2019-02-24T21:48:34.826Z,34.00
2019-02-24T21:51:04.286Z,34.60
2019-02-24T21:53:33.656Z,34.10
2019-02-24T21:56:02.907Z,31.80
2019-02-24T21:58:32.266Z,33.50
2019-02-24T22:01:01.521Z,31.30
2019-02-24T22:03:31.248Z,30.00
2019-02-24T22:06:00.761Z,30.50
2019-02-24T22:08:30.230Z,29.90
2019-02-24T22:10:59.496Z,31.60
2019-02-24T22:13:29.032Z,28.60
2019-02-24T22:15:58.271Z,29.20
2019-02-24T22:18:27.630Z,28.90
2019-02-24T22:20:57.087Z,30.10
2019-02-24T22:23:26.465Z,30.60
2019-02-24T22:25:55.931Z,32.60
2019-02-24T22:28:25.193Z,34.90
2019-02-24T22:30:54.543Z,35.90
2019-02-24T22:33:23.738Z,35.20
2019-02-24T22:35:53.089Z,33.20
2019-02-24T22:38:22.667Z,34.50
2019-02-24T22:40:54.323Z,33.90
2019-02-24T22:43:23.044Z,32.40
2019-02-24T22:45:52.767Z,31.60
2019-02-24T22:48:21.987Z,31.40
2019-02-24T22:50:51.599Z,32.20
2019-02-24T22:53:21.094Z,32.10
2019-02-24T22:55:50.539Z,33.10
2019-02-24T22:58:19.741Z,32.80
2019-02-24T23:00:53.928Z,34.90
2019-02-24T23:03:31.469Z,35.70
2019-02-24T23:06:00.872Z,36.80
2019-02-24T23:08:30.193Z,37.00
2019-02-24T23:10:59.963Z,36.00
2019-02-24T23:13:29.441Z,35.60
2019-02-24T23:15:58.912Z,37.50
2019-02-24T23:18:28.379Z,37.00
2019-02-24T23:20:58.721Z,35.90
2019-02-24T23:23:28.393Z,35.90
2019-02-24T23:25:57.581Z,35.10
2019-02-24T23:28:26.911Z,34.50
2019-02-24T23:30:56.379Z,35.50
2019-02-24T23:33:25.583Z,36.60
2019-02-24T23:35:54.833Z,38.30
2019-02-24T23:38:24.601Z,37.10
2019-02-24T23:40:53.777Z,36.70
2019-02-24T23:43:23.438Z,37.50
2019-02-24T23:45:52.644Z,41.20
2019-02-24T23:48:21.975Z,42.10
2019-02-24T23:50:51.535Z,41.60
2019-02-24T23:53:21.031Z,40.30
2019-02-24T23:55:50.813Z,39.20
2019-02-24T23:58:20.684Z,38.60
